createdAt,value
2023-04-16T04:02:23.584Z,2.63
2023-04-16T04:06:35.751Z,3.97
2023-04-16T04:10:47.391Z,5.65
2023-04-16T04:14:59.917Z,4.93
2023-04-16T04:19:12.553Z,3.55
2023-04-16T04:23:24.409Z,4.53
2023-04-16T04:27:36.780Z,3.95
2023-04-16T04:31:48.480Z,4.20
2023-04-16T04:36:01.043Z,4.72
2023-04-16T04:40:13.151Z,4.95
2023-04-16T04:44:24.765Z,5.13
2023-04-16T04:48:36.599Z,5.15
2023-04-16T04:52:48.414Z,7.00
2023-04-16T04:57:01.210Z,6.47
2023-04-16T05:01:14.447Z,6.32
2023-04-16T05:05:26.510Z,7.72
2023-04-16T05:09:38.206Z,5.88
2023-04-16T05:13:49.940Z,6.80
2023-04-16T05:18:01.581Z,6.72
2023-04-16T05:22:13.312Z,8.07
2023-04-16T05:26:24.874Z,8.65
2023-04-16T05:30:36.605Z,12.35
2023-04-16T05:34:50.442Z,7.63
2023-04-16T05:39:05.458Z,10.70
2023-04-16T05:43:19.906Z,10.10
2023-04-16T05:47:31.663Z,11.55
2023-04-16T05:51:43.235Z,11.05
2023-04-16T05:55:54.936Z,11.98
2023-04-16T06:00:07.943Z,11.48
2023-04-16T06:04:25.360Z,10.77
2023-04-16T06:08:36.916Z,11.80
2023-04-16T06:12:48.790Z,10.35
2023-04-16T06:17:05.194Z,11.82
2023-04-16T06:21:16.798Z,11.18
2023-04-16T06:25:28.332Z,11.13
2023-04-16T06:29:41.371Z,12.50
2023-04-16T06:33:53.283Z,17.05
2023-04-16T06:38:04.778Z,10.82
2023-04-16T06:42:16.364Z,11.27
2023-04-16T06:46:27.995Z,9.95
2023-04-16T06:50:39.513Z,11.70
2023-04-16T06:54:51.036Z,10.95
2023-04-16T06:59:02.578Z,11.60
2023-04-16T07:03:14.449Z,10.52
2023-04-16T07:07:26.191Z,9.38
2023-04-16T07:11:38.036Z,11.82
2023-04-16T07:15:49.615Z,13.60
2023-04-16T07:20:02.183Z,11.15
2023-04-16T07:24:13.977Z,9.98
2023-04-16T07:28:25.902Z,10.18
2023-04-16T07:32:37.715Z,10.27
2023-04-16T07:36:49.358Z,10.48
2023-04-16T07:41:01.169Z,9.73
2023-04-16T07:45:12.656Z,8.82
2023-04-16T07:49:24.175Z,9.88
2023-04-16T07:53:35.937Z,9.57
2023-04-16T07:57:47.460Z,8.98
2023-04-16T08:01:59.126Z,9.98
2023-04-16T08:06:10.823Z,8.05
2023-04-16T08:10:22.361Z,7.32
2023-04-16T08:14:33.925Z,7.72
2023-04-16T08:18:45.414Z,6.93
2023-04-16T08:22:56.924Z,7.35
2023-04-16T08:27:18.316Z,7.85
2023-04-16T08:31:31.810Z,6.50
2023-04-16T08:35:43.461Z,5.63
2023-04-16T08:39:54.975Z,6.43
2023-04-16T08:44:14.011Z,5.07
2023-04-16T08:48:25.636Z,6.68
2023-04-16T08:52:43.010Z,6.68
2023-04-16T08:56:56.193Z,6.70
2023-04-16T09:01:09.827Z,5.70
2023-04-16T09:05:25.492Z,5.95
2023-04-16T09:09:38.858Z,6.60
2023-04-16T09:13:50.325Z,5.57
2023-04-16T09:18:01.907Z,6.90
2023-04-16T09:22:13.523Z,7.00
2023-04-16T09:26:25.175Z,6.35
2023-04-16T09:30:37.512Z,6.30
2023-04-16T09:35:00.598Z,7.10
2023-04-16T09:39:20.555Z,6.70
2023-04-16T09:43:32.082Z,7.07
2023-04-16T09:47:45.850Z,7.05
2023-04-16T09:51:59.830Z,7.53
2023-04-16T09:56:11.989Z,7.55
2023-04-16T10:00:23.535Z,7.80
2023-04-16T10:04:51.986Z,6.88
2023-04-16T10:09:07.599Z,7.72
2023-04-16T10:13:19.226Z,8.50
2023-04-16T10:17:31.641Z,5.82
2023-04-16T10:21:43.286Z,5.40
2023-04-16T10:25:57.314Z,6.28
2023-04-16T10:30:10.667Z,5.55
2023-04-16T10:34:23.329Z,7.00
2023-04-16T10:38:37.601Z,5.93
2023-04-16T10:42:59.243Z,5.75
2023-04-16T10:47:12.670Z,6.25
2023-04-16T10:51:34.255Z,6.93
2023-04-16T10:56:04.760Z,4.95
2023-04-16T11:00:23.139Z,5.60
2023-04-16T11:04:40.043Z,5.78
2023-04-16T11:08:54.901Z,5.97
2023-04-16T11:13:07.334Z,5.35
2023-04-16T11:17:20.349Z,6.70
2023-04-16T11:21:32.542Z,6.13
2023-04-16T11:25:45.015Z,5.22
2023-04-16T11:29:59.018Z,5.05
2023-04-16T11:34:10.598Z,5.57
2023-04-16T11:38:32.857Z,7.63
2023-04-16T11:42:44.590Z,6.63
2023-04-16T11:46:56.222Z,6.60
2023-04-16T11:51:08.417Z,7.57
2023-04-16T11:55:20.634Z,5.70
2023-04-16T11:59:33.224Z,6.20
2023-04-16T12:03:49.565Z,8.55
2023-04-16T12:08:04.588Z,5.97
2023-04-16T12:12:33.315Z,5.00
2023-04-16T12:16:45.019Z,5.18
2023-04-16T12:20:56.549Z,6.28
2023-04-16T12:25:12.282Z,6.55
2023-04-16T12:29:25.518Z,7.25
2023-04-16T12:33:37.043Z,6.28
2023-04-16T12:37:48.537Z,6.00
2023-04-16T12:42:00.029Z,5.43
2023-04-16T12:46:11.705Z,8.70
2023-04-16T12:50:23.393Z,6.00
2023-04-16T12:54:34.916Z,4.55
2023-04-16T12:58:46.465Z,5.70
2023-04-16T13:02:58.136Z,6.53
2023-04-16T13:07:10.810Z,6.13
2023-04-16T13:11:22.403Z,5.60
2023-04-16T13:15:34.120Z,5.18
2023-04-16T13:19:45.681Z,6.15
2023-04-16T13:23:57.197Z,5.75
2023-04-16T13:28:08.758Z,6.55
2023-04-16T13:32:20.396Z,6.13
2023-04-16T13:36:32.996Z,5.45
2023-04-16T13:40:44.648Z,7.32
2023-04-16T13:44:58.054Z,6.55
2023-04-16T13:49:09.796Z,5.68
2023-04-16T13:53:21.988Z,6.85
2023-04-16T13:57:33.505Z,6.28
2023-04-16T14:01:45.033Z,6.05
2023-04-16T14:05:56.650Z,6.82
2023-04-16T14:10:08.736Z,6.97
2023-04-16T14:14:20.268Z,6.10
2023-04-16T14:18:31.774Z,6.35
2023-04-16T14:22:44.189Z,7.85
2023-04-16T14:26:55.837Z,8.02
2023-04-16T14:31:07.346Z,7.00
2023-04-16T14:35:18.942Z,7.45
2023-04-16T14:39:30.974Z,9.40
2023-04-16T14:43:44.218Z,8.25
2023-04-16T14:47:55.948Z,9.00
2023-04-16T14:52:07.754Z,9.00
2023-04-16T14:56:19.258Z,9.73
2023-04-16T15:00:31.192Z,7.38
2023-04-16T15:04:42.781Z,10.80
2023-04-16T15:08:54.337Z,8.68
2023-04-16T15:13:05.831Z,9.63
2023-04-16T15:17:17.362Z,9.63
2023-04-16T15:21:29.054Z,11.30
2023-04-16T15:25:40.680Z,11.13
2023-04-16T15:29:53.838Z,10.15
2023-04-16T15:34:05.438Z,9.65
2023-04-16T15:38:17.541Z,12.82
2023-04-16T15:42:29.045Z,12.52
2023-04-16T15:46:40.619Z,11.15
2023-04-16T15:50:52.900Z,12.63
2023-04-16T15:55:05.270Z,11.95
2023-04-16T15:59:16.874Z,13.65
2023-04-16T16:03:28.601Z,9.50
2023-04-16T16:07:41.012Z,10.57
2023-04-16T16:11:54.214Z,11.75
2023-04-16T16:16:05.996Z,10.45
2023-04-16T16:20:17.573Z,11.38
2023-04-16T16:24:30.125Z,11.75
2023-04-16T16:28:43.751Z,12.20
2023-04-16T16:32:55.400Z,12.05
2023-04-16T16:37:06.934Z,13.35
2023-04-16T16:41:18.473Z,11.57
2023-04-16T16:45:30.589Z,12.25
2023-04-16T16:49:42.067Z,13.32
2023-04-16T16:53:53.565Z,12.88
2023-04-16T16:58:05.047Z,12.52
2023-04-16T17:02:17.861Z,13.95
2023-04-16T17:06:29.470Z,12.40
2023-04-16T17:10:42.615Z,12.25
2023-04-16T17:14:55.821Z,11.35
2023-04-16T17:19:07.432Z,10.75
2023-04-16T17:23:19.179Z,10.57
2023-04-16T17:27:34.326Z,10.73
2023-04-16T17:31:46.108Z,10.98
2023-04-16T17:35:57.740Z,10.93
2023-04-16T17:40:10.103Z,9.90
2023-04-16T17:44:23.162Z,10.65
2023-04-16T17:48:37.800Z,11.82
2023-04-16T17:52:49.329Z,11.65
2023-04-16T17:57:02.983Z,10.82
2023-04-16T18:01:14.669Z,10.40
2023-04-16T18:05:26.326Z,10.48
2023-04-16T18:09:37.873Z,12.05
2023-04-16T18:13:49.592Z,10.45
2023-04-16T18:18:01.123Z,13.30
2023-04-16T18:22:13.438Z,13.02
2023-04-16T18:26:25.346Z,11.80
2023-04-16T18:30:40.263Z,18.20
2023-04-16T18:34:52.164Z,20.73
2023-04-16T18:39:03.664Z,17.77
2023-04-16T18:43:15.809Z,16.48
2023-04-16T18:47:27.444Z,16.00
2023-04-16T18:51:39.192Z,16.10
2023-04-16T18:55:53.674Z,12.63
2023-04-16T19:00:11.078Z,16.02
2023-04-16T19:04:22.754Z,18.27
2023-04-16T19:08:34.355Z,17.45
2023-04-16T19:12:45.926Z,12.90
2023-04-16T19:16:57.426Z,14.27
2023-04-16T19:21:10.718Z,12.55
2023-04-16T19:25:22.666Z,14.43
2023-04-16T19:29:35.268Z,17.13
2023-04-16T19:33:46.892Z,17.30
2023-04-16T19:37:58.632Z,20.52
2023-04-16T19:42:10.271Z,20.98
2023-04-16T19:46:21.861Z,19.25
2023-04-16T19:50:33.538Z,21.52
2023-04-16T19:54:45.217Z,25.00
2023-04-16T19:58:56.804Z,24.25
2023-04-16T20:03:08.817Z,22.60
2023-04-16T20:07:20.626Z,23.23
2023-04-16T20:11:32.151Z,18.55
2023-04-16T20:15:43.702Z,18.83
2023-04-16T20:20:00.775Z,16.98
2023-04-16T20:24:12.492Z,15.35
2023-04-16T20:28:24.181Z,16.40
2023-04-16T20:32:36.086Z,16.45
2023-04-16T20:36:47.794Z,17.02
2023-04-16T20:41:12.510Z,18.10
2023-04-16T20:45:24.262Z,20.20
2023-04-16T20:49:35.790Z,19.40
2023-04-16T20:53:47.379Z,22.70
2023-04-16T20:57:59.095Z,18.63
2023-04-16T21:02:10.909Z,17.92
2023-04-16T21:06:22.548Z,19.27
2023-04-16T21:10:34.058Z,20.15
2023-04-16T21:14:45.552Z,19.83
2023-04-16T21:18:57.689Z,20.85
2023-04-16T21:23:09.228Z,17.48
2023-04-16T21:27:20.761Z,20.48
